sensor_id;sensor_type;location;lat;lon;timestamp;temperature;humidity
46732;DHT22;32477;51.474;5.696;2023-04-19T00:01:26;10.80;99.90
46732;DHT22;32477;51.474;5.696;2023-04-19T00:03:53;10.80;99.90
46732;DHT22;32477;51.474;5.696;2023-04-19T00:06:19;10.70;99.90
46732;DHT22;32477;51.474;5.696;2023-04-19T00:08:45;10.70;99.90
46732;DHT22;32477;51.474;5.696;2023-04-19T00:11:11;10.80;99.90
46732;DHT22;32477;51.474;5.696;2023-04-19T00:13:36;10.80;99.90
46732;DHT22;32477;51.474;5.696;2023-04-19T00:16:03;10.80;99.90
46732;DHT22;32477;51.474;5.696;2023-04-19T00:18:28;10.80;99.90
46732;DHT22;32477;51.474;5.696;2023-04-19T00:20:54;10.80;99.90
46732;DHT22;32477;51.474;5.696;2023-04-19T00:23:20;10.80;99.90
46732;DHT22;32477;51.474;5.696;2023-04-19T00:25:48;10.80;99.90
46732;DHT22;32477;51.474;5.696;2023-04-19T00:28:13;10.80;99.90
46732;DHT22;32477;51.474;5.696;2023-04-19T00:30:39;10.80;99.90
46732;DHT22;32477;51.474;5.696;2023-04-19T00:33:05;10.80;99.90
46732;DHT22;32477;51.474;5.696;2023-04-19T00:35:37;10.80;99.90
46732;DHT22;32477;51.474;5.696;2023-04-19T00:38:03;10.80;99.90
46732;DHT22;32477;51.474;5.696;2023-04-19T00:40:31;10.80;99.90
46732;DHT22;32477;51.474;5.696;2023-04-19T00:42:57;10.80;99.90
46732;DHT22;32477;51.474;5.696;2023-04-19T00:45:22;10.70;99.90
46732;DHT22;32477;51.474;5.696;2023-04-19T00:47:48;10.80;99.90
46732;DHT22;32477;51.474;5.696;2023-04-19T00:50:14;10.70;99.90
46732;DHT22;32477;51.474;5.696;2023-04-19T00:52:40;10.70;99.90
46732;DHT22;32477;51.474;5.696;2023-04-19T00:55:07;10.70;99.90
46732;DHT22;32477;51.474;5.696;2023-04-19T00:57:32;10.70;99.90
46732;DHT22;32477;51.474;5.696;2023-04-19T00:59:58;10.70;99.90
46732;DHT22;32477;51.474;5.696;2023-04-19T01:02:24;10.70;99.90
46732;DHT22;32477;51.474;5.696;2023-04-19T01:04:50;10.70;99.90
46732;DHT22;32477;51.474;5.696;2023-04-19T01:07:17;10.70;99.90
46732;DHT22;32477;51.474;5.696;2023-04-19T01:09:44;10.70;99.90
46732;DHT22;32477;51.474;5.696;2023-04-19T01:12:10;10.70;99.90
46732;DHT22;32477;51.474;5.696;2023-04-19T01:14:36;10.70;99.90
46732;DHT22;32477;51.474;5.696;2023-04-19T01:17:02;10.70;99.90
46732;DHT22;32477;51.474;5.696;2023-04-19T01:19:27;10.70;99.90
46732;DHT22;32477;51.474;5.696;2023-04-19T01:21:53;10.70;99.90
46732;DHT22;32477;51.474;5.696;2023-04-19T01:24:20;10.70;99.90
46732;DHT22;32477;51.474;5.696;2023-04-19T01:26:46;10.70;99.90
46732;DHT22;32477;51.474;5.696;2023-04-19T01:29:12;10.70;99.90
46732;DHT22;32477;51.474;5.696;2023-04-19T01:31:38;10.70;99.90
46732;DHT22;32477;51.474;5.696;2023-04-19T01:34:04;10.70;99.90
46732;DHT22;32477;51.474;5.696;2023-04-19T01:36:30;10.70;99.90
46732;DHT22;32477;51.474;5.696;2023-04-19T01:38:55;10.70;99.90
46732;DHT22;32477;51.474;5.696;2023-04-19T01:41:21;10.60;99.90
46732;DHT22;32477;51.474;5.696;2023-04-19T01:43:51;10.60;99.90
46732;DHT22;32477;51.474;5.696;2023-04-19T01:46:17;10.60;99.90
46732;DHT22;32477;51.474;5.696;2023-04-19T01:48:44;10.60;99.90
46732;DHT22;32477;51.474;5.696;2023-04-19T01:51:09;10.60;99.90
46732;DHT22;32477;51.474;5.696;2023-04-19T01:53:35;10.70;99.90
46732;DHT22;32477;51.474;5.696;2023-04-19T01:56:01;10.60;99.90
46732;DHT22;32477;51.474;5.696;2023-04-19T01:58:26;10.70;99.90
46732;DHT22;32477;51.474;5.696;2023-04-19T02:00:52;10.70;99.90
46732;DHT22;32477;51.474;5.696;2023-04-19T02:03:17;10.70;99.90
46732;DHT22;32477;51.474;5.696;2023-04-19T02:05:43;10.70;99.90
46732;DHT22;32477;51.474;5.696;2023-04-19T02:08:09;10.70;99.90
46732;DHT22;32477;51.474;5.696;2023-04-19T02:10:34;10.80;99.90
46732;DHT22;32477;51.474;5.696;2023-04-19T02:13:00;10.80;99.90
46732;DHT22;32477;51.474;5.696;2023-04-19T02:15:26;10.80;99.90
46732;DHT22;32477;51.474;5.696;2023-04-19T02:17:52;10.80;99.90
46732;DHT22;32477;51.474;5.696;2023-04-19T02:20:17;10.80;99.90
46732;DHT22;32477;51.474;5.696;2023-04-19T02:22:43;10.80;99.90
46732;DHT22;32477;51.474;5.696;2023-04-19T02:25:09;10.90;99.90
46732;DHT22;32477;51.474;5.696;2023-04-19T02:27:34;10.90;99.90
46732;DHT22;32477;51.474;5.696;2023-04-19T02:30:00;10.90;99.90
46732;DHT22;32477;51.474;5.696;2023-04-19T02:32:26;10.90;99.90
46732;DHT22;32477;51.474;5.696;2023-04-19T02:34:52;10.90;99.90
46732;DHT22;32477;51.474;5.696;2023-04-19T02:37:17;10.90;99.90
46732;DHT22;32477;51.474;5.696;2023-04-19T02:39:43;10.90;99.90
46732;DHT22;32477;51.474;5.696;2023-04-19T02:42:10;10.90;99.90
46732;DHT22;32477;51.474;5.696;2023-04-19T02:44:35;10.90;99.90
46732;DHT22;32477;51.474;5.696;2023-04-19T02:47:01;11.00;99.90
46732;DHT22;32477;51.474;5.696;2023-04-19T02:49:29;10.90;99.90
46732;DHT22;32477;51.474;5.696;2023-04-19T02:51:57;11.00;99.90
46732;DHT22;32477;51.474;5.696;2023-04-19T02:54:23;11.00;99.90
46732;DHT22;32477;51.474;5.696;2023-04-19T02:56:48;10.90;99.90
46732;DHT22;32477;51.474;5.696;2023-04-19T02:59:14;11.00;99.90
46732;DHT22;32477;51.474;5.696;2023-04-19T03:01:40;11.00;99.90
46732;DHT22;32477;51.474;5.696;2023-04-19T03:04:05;10.90;99.90
46732;DHT22;32477;51.474;5.696;2023-04-19T03:06:31;10.90;99.90
46732;DHT22;32477;51.474;5.696;2023-04-19T03:08:56;11.00;99.90
46732;DHT22;32477;51.474;5.696;2023-04-19T03:11:22;11.00;99.90
46732;DHT22;32477;51.474;5.696;2023-04-19T03:13:48;11.00;99.90
46732;DHT22;32477;51.474;5.696;2023-04-19T03:16:13;11.00;99.90
46732;DHT22;32477;51.474;5.696;2023-04-19T03:18:39;11.00;99.90
46732;DHT22;32477;51.474;5.696;2023-04-19T03:21:05;10.90;99.90
46732;DHT22;32477;51.474;5.696;2023-04-19T03:23:33;11.00;99.90
46732;DHT22;32477;51.474;5.696;2023-04-19T03:25:59;10.90;99.90
46732;DHT22;32477;51.474;5.696;2023-04-19T03:28:25;10.90;99.90
46732;DHT22;32477;51.474;5.696;2023-04-19T03:30:50;10.90;99.90
46732;DHT22;32477;51.474;5.696;2023-04-19T03:33:16;10.90;99.90
46732;DHT22;32477;51.474;5.696;2023-04-19T03:35:43;10.90;99.90
46732;DHT22;32477;51.474;5.696;2023-04-19T03:38:08;10.90;99.90
46732;DHT22;32477;51.474;5.696;2023-04-19T03:40:36;10.90;99.90
46732;DHT22;32477;51.474;5.696;2023-04-19T03:43:02;10.90;99.90
46732;DHT22;32477;51.474;5.696;2023-04-19T03:45:28;10.90;99.90
46732;DHT22;32477;51.474;5.696;2023-04-19T03:47:54;10.90;99.90
46732;DHT22;32477;51.474;5.696;2023-04-19T03:50:19;10.80;99.90
46732;DHT22;32477;51.474;5.696;2023-04-19T03:52:45;10.80;99.90
46732;DHT22;32477;51.474;5.696;2023-04-19T03:55:11;10.80;99.90
46732;DHT22;32477;51.474;5.696;2023-04-19T03:57:39;10.70;99.90
46732;DHT22;32477;51.474;5.696;2023-04-19T04:00:05;10.70;99.90
46732;DHT22;32477;51.474;5.696;2023-04-19T04:02:32;10.70;99.90
46732;DHT22;32477;51.474;5.696;2023-04-19T04:04:58;10.70;99.90
46732;DHT22;32477;51.474;5.696;2023-04-19T04:07:23;10.70;99.90
46732;DHT22;32477;51.474;5.696;2023-04-19T04:09:50;10.60;99.90
46732;DHT22;32477;51.474;5.696;2023-04-19T04:12:16;10.60;99.90
46732;DHT22;32477;51.474;5.696;2023-04-19T04:14:41;10.50;99.90
46732;DHT22;32477;51.474;5.696;2023-04-19T04:17:07;10.50;99.90
46732;DHT22;32477;51.474;5.696;2023-04-19T04:19:33;10.50;99.90
46732;DHT22;32477;51.474;5.696;2023-04-19T04:21:58;10.40;99.90
46732;DHT22;32477;51.474;5.696;2023-04-19T04:24:24;10.40;99.90
46732;DHT22;32477;51.474;5.696;2023-04-19T04:26:50;10.30;99.90
46732;DHT22;32477;51.474;5.696;2023-04-19T04:29:16;10.30;99.90
46732;DHT22;32477;51.474;5.696;2023-04-19T04:31:42;10.30;99.90
46732;DHT22;32477;51.474;5.696;2023-04-19T04:34:08;10.30;99.90
46732;DHT22;32477;51.474;5.696;2023-04-19T04:36:34;10.30;99.90
46732;DHT22;32477;51.474;5.696;2023-04-19T04:39:02;10.30;99.90
46732;DHT22;32477;51.474;5.696;2023-04-19T04:41:28;10.20;99.90
46732;DHT22;32477;51.474;5.696;2023-04-19T04:43:56;10.20;99.90
46732;DHT22;32477;51.474;5.696;2023-04-19T04:46:23;10.20;99.90
46732;DHT22;32477;51.474;5.696;2023-04-19T04:48:48;10.20;99.90
46732;DHT22;32477;51.474;5.696;2023-04-19T04:51:14;10.10;99.90
46732;DHT22;32477;51.474;5.696;2023-04-19T04:53:40;10.10;99.90
46732;DHT22;32477;51.474;5.696;2023-04-19T04:56:05;10.10;99.90
46732;DHT22;32477;51.474;5.696;2023-04-19T04:58:31;10.00;99.90
46732;DHT22;32477;51.474;5.696;2023-04-19T05:00:57;10.00;99.90
46732;DHT22;32477;51.474;5.696;2023-04-19T05:03:22;9.90;99.90
46732;DHT22;32477;51.474;5.696;2023-04-19T05:05:48;9.70;99.90
46732;DHT22;32477;51.474;5.696;2023-04-19T05:08:14;9.70;99.90
46732;DHT22;32477;51.474;5.696;2023-04-19T05:10:39;9.60;99.90
46732;DHT22;32477;51.474;5.696;2023-04-19T05:13:05;9.50;99.90
46732;DHT22;32477;51.474;5.696;2023-04-19T05:15:31;9.50;99.90
46732;DHT22;32477;51.474;5.696;2023-04-19T05:17:57;9.40;99.90
46732;DHT22;32477;51.474;5.696;2023-04-19T05:20:22;9.40;99.90
46732;DHT22;32477;51.474;5.696;2023-04-19T05:22:48;9.40;99.90
46732;DHT22;32477;51.474;5.696;2023-04-19T05:25:13;9.40;99.90
46732;DHT22;32477;51.474;5.696;2023-04-19T05:27:39;9.60;99.90
46732;DHT22;32477;51.474;5.696;2023-04-19T05:30:05;9.70;99.90
46732;DHT22;32477;51.474;5.696;2023-04-19T05:32:31;9.80;99.90
46732;DHT22;32477;51.474;5.696;2023-04-19T05:34:57;9.80;99.90
46732;DHT22;32477;51.474;5.696;2023-04-19T05:37:23;9.90;99.90
46732;DHT22;32477;51.474;5.696;2023-04-19T05:39:48;9.70;99.90
46732;DHT22;32477;51.474;5.696;2023-04-19T05:42:14;9.60;99.90
46732;DHT22;32477;51.474;5.696;2023-04-19T05:44:40;9.50;99.90
46732;DHT22;32477;51.474;5.696;2023-04-19T05:47:05;9.40;99.90
46732;DHT22;32477;51.474;5.696;2023-04-19T05:49:31;9.40;99.90
46732;DHT22;32477;51.474;5.696;2023-04-19T05:51:57;9.40;99.90
46732;DHT22;32477;51.474;5.696;2023-04-19T05:54:22;9.40;99.90
46732;DHT22;32477;51.474;5.696;2023-04-19T05:56:48;9.40;99.90
46732;DHT22;32477;51.474;5.696;2023-04-19T05:59:14;9.50;99.90
46732;DHT22;32477;51.474;5.696;2023-04-19T06:01:39;9.50;99.90
46732;DHT22;32477;51.474;5.696;2023-04-19T06:04:05;9.60;99.90
46732;DHT22;32477;51.474;5.696;2023-04-19T06:06:31;9.80;99.90
46732;DHT22;32477;51.474;5.696;2023-04-19T06:08:56;9.90;99.90
46732;DHT22;32477;51.474;5.696;2023-04-19T06:11:22;10.00;99.90
46732;DHT22;32477;51.474;5.696;2023-04-19T06:13:48;10.10;99.90
46732;DHT22;32477;51.474;5.696;2023-04-19T06:16:15;10.20;99.90
46732;DHT22;32477;51.474;5.696;2023-04-19T06:18:41;10.40;99.90
46732;DHT22;32477;51.474;5.696;2023-04-19T06:21:07;10.70;99.90
46732;DHT22;32477;51.474;5.696;2023-04-19T06:23:33;11.00;99.90
46732;DHT22;32477;51.474;5.696;2023-04-19T06:25:59;11.60;99.90
46732;DHT22;32477;51.474;5.696;2023-04-19T06:28:24;12.00;99.90
46732;DHT22;32477;51.474;5.696;2023-04-19T06:30:50;12.40;99.90
46732;DHT22;32477;51.474;5.696;2023-04-19T06:33:16;12.40;99.90
46732;DHT22;32477;51.474;5.696;2023-04-19T06:35:41;12.00;99.90
46732;DHT22;32477;51.474;5.696;2023-04-19T06:38:07;12.20;99.90
46732;DHT22;32477;51.474;5.696;2023-04-19T06:40:33;12.40;99.90
46732;DHT22;32477;51.474;5.696;2023-04-19T06:42:58;12.80;99.90
46732;DHT22;32477;51.474;5.696;2023-04-19T06:45:24;13.20;99.90
46732;DHT22;32477;51.474;5.696;2023-04-19T06:47:50;13.70;99.90
46732;DHT22;32477;51.474;5.696;2023-04-19T06:50:16;13.20;99.90
46732;DHT22;32477;51.474;5.696;2023-04-19T06:52:41;13.00;99.90
46732;DHT22;32477;51.474;5.696;2023-04-19T06:55:08;13.40;99.90
46732;DHT22;32477;51.474;5.696;2023-04-19T06:57:34;13.60;99.90
46732;DHT22;32477;51.474;5.696;2023-04-19T07:00:00;13.30;99.90
46732;DHT22;32477;51.474;5.696;2023-04-19T07:02:25;13.10;99.90
46732;DHT22;32477;51.474;5.696;2023-04-19T07:04:51;13.20;99.90
46732;DHT22;32477;51.474;5.696;2023-04-19T07:07:17;13.30;99.90
46732;DHT22;32477;51.474;5.696;2023-04-19T07:09:42;13.50;99.90
46732;DHT22;32477;51.474;5.696;2023-04-19T07:12:08;13.80;99.90
46732;DHT22;32477;51.474;5.696;2023-04-19T07:14:34;13.60;99.90
46732;DHT22;32477;51.474;5.696;2023-04-19T07:17:00;13.80;99.90
46732;DHT22;32477;51.474;5.696;2023-04-19T07:19:25;13.60;99.90
46732;DHT22;32477;51.474;5.696;2023-04-19T07:21:52;13.60;99.90
46732;DHT22;32477;51.474;5.696;2023-04-19T07:24:18;13.90;99.90
46732;DHT22;32477;51.474;5.696;2023-04-19T07:26:44;14.20;99.90
46732;DHT22;32477;51.474;5.696;2023-04-19T07:29:09;14.90;99.90
46732;DHT22;32477;51.474;5.696;2023-04-19T07:31:35;15.50;99.90
46732;DHT22;32477;51.474;5.696;2023-04-19T07:34:01;15.20;99.10
46732;DHT22;32477;51.474;5.696;2023-04-19T07:36:26;15.50;98.80
46732;DHT22;32477;51.474;5.696;2023-04-19T07:38:52;15.20;98.70
46732;DHT22;32477;51.474;5.696;2023-04-19T07:41:18;15.30;98.50
46732;DHT22;32477;51.474;5.696;2023-04-19T07:43:44;14.70;98.30
46732;DHT22;32477;51.474;5.696;2023-04-19T07:46:13;15.00;98.60
46732;DHT22;32477;51.474;5.696;2023-04-19T07:48:40;15.30;98.70
46732;DHT22;32477;51.474;5.696;2023-04-19T07:51:14;14.90;98.10
46732;DHT22;32477;51.474;5.696;2023-04-19T07:53:41;15.50;97.20
46732;DHT22;32477;51.474;5.696;2023-04-19T07:56:08;16.00;96.10
46732;DHT22;32477;51.474;5.696;2023-04-19T07:58:34;15.50;96.50
46732;DHT22;32477;51.474;5.696;2023-04-19T08:01:00;16.10;95.20
46732;DHT22;32477;51.474;5.696;2023-04-19T08:03:26;15.50;95.00
46732;DHT22;32477;51.474;5.696;2023-04-19T08:05:52;15.70;95.30
46732;DHT22;32477;51.474;5.696;2023-04-19T08:08:18;15.50;94.90
46732;DHT22;32477;51.474;5.696;2023-04-19T08:10:44;15.90;94.30
46732;DHT22;32477;51.474;5.696;2023-04-19T08:13:10;16.30;93.10
46732;DHT22;32477;51.474;5.696;2023-04-19T08:15:36;15.90;93.20
46732;DHT22;32477;51.474;5.696;2023-04-19T08:18:01;15.60;94.10
46732;DHT22;32477;51.474;5.696;2023-04-19T08:20:30;15.60;93.50
46732;DHT22;32477;51.474;5.696;2023-04-19T08:22:57;15.60;93.40
46732;DHT22;32477;51.474;5.696;2023-04-19T08:25:23;16.20;92.70
46732;DHT22;32477;51.474;5.696;2023-04-19T08:27:53;16.90;91.00
46732;DHT22;32477;51.474;5.696;2023-04-19T08:30:19;16.70;90.60
46732;DHT22;32477;51.474;5.696;2023-04-19T08:32:45;16.00;90.80
46732;DHT22;32477;51.474;5.696;2023-04-19T08:35:11;16.60;90.30
46732;DHT22;32477;51.474;5.696;2023-04-19T08:37:37;16.20;90.00
46732;DHT22;32477;51.474;5.696;2023-04-19T08:40:03;16.70;91.30
46732;DHT22;32477;51.474;5.696;2023-04-19T08:42:31;17.40;88.70
46732;DHT22;32477;51.474;5.696;2023-04-19T08:45:00;16.90;86.60
46732;DHT22;32477;51.474;5.696;2023-04-19T08:47:27;17.10;85.90
46732;DHT22;32477;51.474;5.696;2023-04-19T08:49:54;16.80;85.80
46732;DHT22;32477;51.474;5.696;2023-04-19T08:52:21;17.20;85.90
46732;DHT22;32477;51.474;5.696;2023-04-19T08:54:48;17.50;85.40
46732;DHT22;32477;51.474;5.696;2023-04-19T08:57:15;17.50;82.80
46732;DHT22;32477;51.474;5.696;2023-04-19T08:59:41;17.90;83.70
46732;DHT22;32477;51.474;5.696;2023-04-19T09:02:09;18.70;82.70
46732;DHT22;32477;51.474;5.696;2023-04-19T09:04:35;18.70;80.00
46732;DHT22;32477;51.474;5.696;2023-04-19T09:07:01;18.40;79.80
46732;DHT22;32477;51.474;5.696;2023-04-19T09:09:28;18.40;79.90
46732;DHT22;32477;51.474;5.696;2023-04-19T09:11:55;18.60;78.30
46732;DHT22;32477;51.474;5.696;2023-04-19T09:14:24;18.10;77.90
46732;DHT22;32477;51.474;5.696;2023-04-19T09:16:49;18.70;78.10
46732;DHT22;32477;51.474;5.696;2023-04-19T09:19:17;17.80;75.50
46732;DHT22;32477;51.474;5.696;2023-04-19T09:21:43;17.70;77.10
46732;DHT22;32477;51.474;5.696;2023-04-19T09:24:08;17.80;78.20
46732;DHT22;32477;51.474;5.696;2023-04-19T09:26:35;17.50;76.70
46732;DHT22;32477;51.474;5.696;2023-04-19T09:29:05;17.90;76.90
46732;DHT22;32477;51.474;5.696;2023-04-19T09:34:14;17.80;75.10
46732;DHT22;32477;51.474;5.696;2023-04-19T09:36:40;17.20;76.20
46732;DHT22;32477;51.474;5.696;2023-04-19T09:39:06;17.90;74.80
46732;DHT22;32477;51.474;5.696;2023-04-19T09:41:32;16.80;74.60
46732;DHT22;32477;51.474;5.696;2023-04-19T09:44:18;17.50;75.10
46732;DHT22;32477;51.474;5.696;2023-04-19T09:46:44;17.20;75.40
46732;DHT22;32477;51.474;5.696;2023-04-19T09:51:46;17.50;75.20
46732;DHT22;32477;51.474;5.696;2023-04-19T09:54:14;17.70;74.40
46732;DHT22;32477;51.474;5.696;2023-04-19T09:56:40;17.50;74.50
46732;DHT22;32477;51.474;5.696;2023-04-19T09:59:07;17.20;73.60
46732;DHT22;32477;51.474;5.696;2023-04-19T10:01:38;17.20;73.70
46732;DHT22;32477;51.474;5.696;2023-04-19T10:04:05;16.70;73.50
46732;DHT22;32477;51.474;5.696;2023-04-19T10:06:32;16.60;74.10
46732;DHT22;32477;51.474;5.696;2023-04-19T10:09:01;16.60;73.10
46732;DHT22;32477;51.474;5.696;2023-04-19T10:11:36;16.80;73.70
46732;DHT22;32477;51.474;5.696;2023-04-19T10:14:09;17.10;71.80
46732;DHT22;32477;51.474;5.696;2023-04-19T10:16:37;16.90;71.30
46732;DHT22;32477;51.474;5.696;2023-04-19T10:19:09;17.80;70.40
46732;DHT22;32477;51.474;5.696;2023-04-19T10:21:35;17.40;70.90
46732;DHT22;32477;51.474;5.696;2023-04-19T10:24:03;17.80;69.60
46732;DHT22;32477;51.474;5.696;2023-04-19T10:26:29;18.40;68.90
46732;DHT22;32477;51.474;5.696;2023-04-19T10:28:55;18.60;67.20
46732;DHT22;32477;51.474;5.696;2023-04-19T10:31:25;18.10;68.50
46732;DHT22;32477;51.474;5.696;2023-04-19T10:33:51;18.40;66.50
46732;DHT22;32477;51.474;5.696;2023-04-19T10:36:17;18.30;64.90
46732;DHT22;32477;51.474;5.696;2023-04-19T10:38:48;18.30;65.40
46732;DHT22;32477;51.474;5.696;2023-04-19T10:41:21;18.10;65.20
46732;DHT22;32477;51.474;5.696;2023-04-19T10:44:08;17.90;62.90
46732;DHT22;32477;51.474;5.696;2023-04-19T10:46:35;18.10;63.50
46732;DHT22;32477;51.474;5.696;2023-04-19T10:49:05;17.90;62.60
46732;DHT22;32477;51.474;5.696;2023-04-19T10:51:36;17.60;61.50
46732;DHT22;32477;51.474;5.696;2023-04-19T10:57:17;18.60;60.10
46732;DHT22;32477;51.474;5.696;2023-04-19T10:59:43;19.10;59.60
46732;DHT22;32477;51.474;5.696;2023-04-19T11:04:56;18.80;58.50
46732;DHT22;32477;51.474;5.696;2023-04-19T11:07:23;19.10;59.20
46732;DHT22;32477;51.474;5.696;2023-04-19T11:09:49;18.90;58.90
46732;DHT22;32477;51.474;5.696;2023-04-19T11:12:18;18.50;60.20
46732;DHT22;32477;51.474;5.696;2023-04-19T11:14:45;18.00;61.60
46732;DHT22;32477;51.474;5.696;2023-04-19T11:17:18;18.50;60.60
46732;DHT22;32477;51.474;5.696;2023-04-19T11:22:17;16.90;63.50
46732;DHT22;32477;51.474;5.696;2023-04-19T11:24:46;16.90;63.70
46732;DHT22;32477;51.474;5.696;2023-04-19T11:27:12;17.00;63.60
46732;DHT22;32477;51.474;5.696;2023-04-19T11:29:38;17.40;64.10
46732;DHT22;32477;51.474;5.696;2023-04-19T11:32:04;17.50;63.60
46732;DHT22;32477;51.474;5.696;2023-04-19T11:34:35;18.70;63.10
46732;DHT22;32477;51.474;5.696;2023-04-19T11:37:01;17.90;62.00
46732;DHT22;32477;51.474;5.696;2023-04-19T11:39:27;18.40;62.30
46732;DHT22;32477;51.474;5.696;2023-04-19T11:41:53;19.10;62.50
46732;DHT22;32477;51.474;5.696;2023-04-19T11:44:19;19.30;61.20
46732;DHT22;32477;51.474;5.696;2023-04-19T11:47:00;18.30;60.70
46732;DHT22;32477;51.474;5.696;2023-04-19T11:49:32;18.80;60.90
46732;DHT22;32477;51.474;5.696;2023-04-19T11:51:59;19.20;59.90
46732;DHT22;32477;51.474;5.696;2023-04-19T11:54:26;17.70;59.90
46732;DHT22;32477;51.474;5.696;2023-04-19T11:57:08;17.80;59.20
46732;DHT22;32477;51.474;5.696;2023-04-19T11:59:34;18.20;59.40
46732;DHT22;32477;51.474;5.696;2023-04-19T12:02:11;17.50;58.40
46732;DHT22;32477;51.474;5.696;2023-04-19T12:04:37;17.80;58.50
46732;DHT22;32477;51.474;5.696;2023-04-19T12:07:05;18.70;58.60
46732;DHT22;32477;51.474;5.696;2023-04-19T12:09:35;19.10;57.50
46732;DHT22;32477;51.474;5.696;2023-04-19T12:12:01;19.10;57.20
46732;DHT22;32477;51.474;5.696;2023-04-19T12:14:28;18.50;58.10
46732;DHT22;32477;51.474;5.696;2023-04-19T12:17:11;18.70;57.20
46732;DHT22;32477;51.474;5.696;2023-04-19T12:19:45;18.70;58.10
46732;DHT22;32477;51.474;5.696;2023-04-19T12:22:16;19.10;56.80
46732;DHT22;32477;51.474;5.696;2023-04-19T12:24:44;17.90;56.60
46732;DHT22;32477;51.474;5.696;2023-04-19T12:27:10;18.30;56.50
46732;DHT22;32477;51.474;5.696;2023-04-19T12:29:37;18.30;55.60
46732;DHT22;32477;51.474;5.696;2023-04-19T12:32:03;17.80;55.20
46732;DHT22;32477;51.474;5.696;2023-04-19T12:34:29;17.70;55.30
46732;DHT22;32477;51.474;5.696;2023-04-19T12:36:55;17.60;55.30
46732;DHT22;32477;51.474;5.696;2023-04-19T12:39:22;18.50;55.30
46732;DHT22;32477;51.474;5.696;2023-04-19T12:41:47;18.80;56.30
46732;DHT22;32477;51.474;5.696;2023-04-19T12:44:14;18.30;56.70
46732;DHT22;32477;51.474;5.696;2023-04-19T12:46:40;18.40;56.20
46732;DHT22;32477;51.474;5.696;2023-04-19T12:49:06;18.00;55.90
46732;DHT22;32477;51.474;5.696;2023-04-19T12:51:32;18.40;56.30
46732;DHT22;32477;51.474;5.696;2023-04-19T12:53:58;18.30;54.90
46732;DHT22;32477;51.474;5.696;2023-04-19T12:56:24;19.10;55.10
46732;DHT22;32477;51.474;5.696;2023-04-19T12:58:50;18.90;54.80
46732;DHT22;32477;51.474;5.696;2023-04-19T13:01:16;19.20;54.40
46732;DHT22;32477;51.474;5.696;2023-04-19T13:03:41;18.80;53.80
46732;DHT22;32477;51.474;5.696;2023-04-19T13:06:08;18.40;53.10
46732;DHT22;32477;51.474;5.696;2023-04-19T13:08:35;17.90;53.10
46732;DHT22;32477;51.474;5.696;2023-04-19T13:11:02;18.60;52.80
46732;DHT22;32477;51.474;5.696;2023-04-19T13:13:28;18.00;52.20
46732;DHT22;32477;51.474;5.696;2023-04-19T13:15:54;18.10;52.60
46732;DHT22;32477;51.474;5.696;2023-04-19T13:18:20;18.20;52.60
46732;DHT22;32477;51.474;5.696;2023-04-19T13:20:47;18.30;52.10
46732;DHT22;32477;51.474;5.696;2023-04-19T13:23:13;18.00;52.20
46732;DHT22;32477;51.474;5.696;2023-04-19T13:25:39;18.00;52.50
46732;DHT22;32477;51.474;5.696;2023-04-19T13:28:05;18.30;52.70
46732;DHT22;32477;51.474;5.696;2023-04-19T13:30:30;17.70;52.70
46732;DHT22;32477;51.474;5.696;2023-04-19T13:32:56;17.90;54.20
46732;DHT22;32477;51.474;5.696;2023-04-19T13:35:22;17.90;54.40
46732;DHT22;32477;51.474;5.696;2023-04-19T13:37:48;18.50;53.90
46732;DHT22;32477;51.474;5.696;2023-04-19T13:40:15;18.40;52.50
46732;DHT22;32477;51.474;5.696;2023-04-19T13:42:41;17.80;52.90
46732;DHT22;32477;51.474;5.696;2023-04-19T13:45:08;17.80;53.20
46732;DHT22;32477;51.474;5.696;2023-04-19T13:47:33;18.10;52.90
46732;DHT22;32477;51.474;5.696;2023-04-19T13:49:59;18.10;52.30
46732;DHT22;32477;51.474;5.696;2023-04-19T13:52:25;18.30;52.80
46732;DHT22;32477;51.474;5.696;2023-04-19T13:54:51;18.00;52.50
46732;DHT22;32477;51.474;5.696;2023-04-19T13:57:17;17.60;52.90
46732;DHT22;32477;51.474;5.696;2023-04-19T13:59:42;18.20;54.00
46732;DHT22;32477;51.474;5.696;2023-04-19T14:02:08;18.50;53.70
46732;DHT22;32477;51.474;5.696;2023-04-19T14:04:34;18.70;54.20
46732;DHT22;32477;51.474;5.696;2023-04-19T14:06:59;19.10;54.50
46732;DHT22;32477;51.474;5.696;2023-04-19T14:09:25;18.80;53.60
46732;DHT22;32477;51.474;5.696;2023-04-19T14:11:52;18.30;53.80
46732;DHT22;32477;51.474;5.696;2023-04-19T14:14:18;17.50;53.90
46732;DHT22;32477;51.474;5.696;2023-04-19T14:16:43;17.40;54.60
46732;DHT22;32477;51.474;5.696;2023-04-19T14:19:09;17.00;55.10
46732;DHT22;32477;51.474;5.696;2023-04-19T14:21:35;16.40;55.60
46732;DHT22;32477;51.474;5.696;2023-04-19T14:24:00;16.10;56.50
46732;DHT22;32477;51.474;5.696;2023-04-19T14:26:26;15.90;57.20
46732;DHT22;32477;51.474;5.696;2023-04-19T14:28:52;15.80;58.10
46732;DHT22;32477;51.474;5.696;2023-04-19T14:31:17;16.00;58.90
46732;DHT22;32477;51.474;5.696;2023-04-19T14:33:43;15.90;58.20
46732;DHT22;32477;51.474;5.696;2023-04-19T14:36:09;15.80;58.00
46732;DHT22;32477;51.474;5.696;2023-04-19T14:38:34;15.60;57.60
46732;DHT22;32477;51.474;5.696;2023-04-19T14:41:01;15.40;58.00
46732;DHT22;32477;51.474;5.696;2023-04-19T14:43:28;15.60;59.00
46732;DHT22;32477;51.474;5.696;2023-04-19T14:45:53;15.50;59.20
46732;DHT22;32477;51.474;5.696;2023-04-19T14:48:20;15.30;59.80
46732;DHT22;32477;51.474;5.696;2023-04-19T14:50:46;15.10;60.30
46732;DHT22;32477;51.474;5.696;2023-04-19T14:53:11;15.00;60.20
46732;DHT22;32477;51.474;5.696;2023-04-19T14:55:37;14.90;60.70
46732;DHT22;32477;51.474;5.696;2023-04-19T14:58:03;15.00;61.10
46732;DHT22;32477;51.474;5.696;2023-04-19T15:00:29;15.30;61.00
46732;DHT22;32477;51.474;5.696;2023-04-19T15:02:55;15.40;61.10
46732;DHT22;32477;51.474;5.696;2023-04-19T15:05:21;15.30;61.40
46732;DHT22;32477;51.474;5.696;2023-04-19T15:07:48;15.20;61.70
46732;DHT22;32477;51.474;5.696;2023-04-19T15:10:14;15.20;62.20
46732;DHT22;32477;51.474;5.696;2023-04-19T15:12:40;15.20;61.50
46732;DHT22;32477;51.474;5.696;2023-04-19T15:15:06;15.10;62.10
46732;DHT22;32477;51.474;5.696;2023-04-19T15:17:32;15.10;62.80
46732;DHT22;32477;51.474;5.696;2023-04-19T15:19:58;15.20;62.70
46732;DHT22;32477;51.474;5.696;2023-04-19T15:22:23;15.30;62.10
46732;DHT22;32477;51.474;5.696;2023-04-19T15:24:49;15.20;62.70
46732;DHT22;32477;51.474;5.696;2023-04-19T15:27:15;15.30;62.60
46732;DHT22;32477;51.474;5.696;2023-04-19T15:29:40;15.30;62.10
46732;DHT22;32477;51.474;5.696;2023-04-19T15:32:06;15.30;62.60
46732;DHT22;32477;51.474;5.696;2023-04-19T15:34:32;15.40;63.10
46732;DHT22;32477;51.474;5.696;2023-04-19T15:36:58;15.30;62.90
46732;DHT22;32477;51.474;5.696;2023-04-19T15:39:24;15.40;62.40
46732;DHT22;32477;51.474;5.696;2023-04-19T15:41:50;15.30;62.60